sensor_id;sensor_type;location;lat;lon;timestamp;P1;durP1;ratioP1;P2;durP2;ratioP2
10947;SDS011;5526;42.070;24.752;2022-12-11T00:01:49;51.92;;;35.67;;
10947;SDS011;5526;42.070;24.752;2022-12-11T00:04:17;47.03;;;32.88;;
10947;SDS011;5526;42.070;24.752;2022-12-11T00:06:46;46.97;;;33.50;;
10947;SDS011;5526;42.070;24.752;2022-12-11T00:09:14;46.72;;;32.17;;
10947;SDS011;5526;42.070;24.752;2022-12-11T00:11:43;41.20;;;31.05;;
10947;SDS011;5526;42.070;24.752;2022-12-11T00:14:11;41.03;;;31.23;;
10947;SDS011;5526;42.070;24.752;2022-12-11T00:16:39;47.92;;;32.70;;
10947;SDS011;5526;42.070;24.752;2022-12-11T00:19:08;49.72;;;33.70;;
10947;SDS011;5526;42.070;24.752;2022-12-11T00:21:35;43.33;;;30.83;;
10947;SDS011;5526;42.070;24.752;2022-12-11T00:24:05;42.67;;;30.83;;
10947;SDS011;5526;42.070;24.752;2022-12-11T00:26:33;43.92;;;32.10;;
10947;SDS011;5526;42.070;24.752;2022-12-11T00:29:02;48.33;;;32.15;;
10947;SDS011;5526;42.070;24.752;2022-12-11T00:31:29;49.03;;;32.80;;
10947;SDS011;5526;42.070;24.752;2022-12-11T00:33:57;48.75;;;33.33;;
10947;SDS011;5526;42.070;24.752;2022-12-11T00:36:26;47.03;;;31.90;;
10947;SDS011;5526;42.070;24.752;2022-12-11T00:38:54;44.55;;;31.75;;
10947;SDS011;5526;42.070;24.752;2022-12-11T00:41:23;43.60;;;30.42;;
10947;SDS011;5526;42.070;24.752;2022-12-11T00:43:51;41.42;;;29.55;;
10947;SDS011;5526;42.070;24.752;2022-12-11T00:46:19;69.68;;;40.65;;
10947;SDS011;5526;42.070;24.752;2022-12-11T00:48:47;80.88;;;51.67;;
10947;SDS011;5526;42.070;24.752;2022-12-11T00:51:16;65.82;;;48.45;;
10947;SDS011;5526;42.070;24.752;2022-12-11T00:53:44;71.85;;;50.60;;
10947;SDS011;5526;42.070;24.752;2022-12-11T00:56:13;74.57;;;52.58;;
10947;SDS011;5526;42.070;24.752;2022-12-11T00:58:44;83.18;;;57.03;;
10947;SDS011;5526;42.070;24.752;2022-12-11T01:01:13;92.07;;;61.20;;
10947;SDS011;5526;42.070;24.752;2022-12-11T01:03:43;96.95;;;61.35;;
10947;SDS011;5526;42.070;24.752;2022-12-11T01:06:12;88.40;;;57.97;;
10947;SDS011;5526;42.070;24.752;2022-12-11T01:08:41;96.20;;;59.75;;
10947;SDS011;5526;42.070;24.752;2022-12-11T01:11:11;87.80;;;60.53;;
10947;SDS011;5526;42.070;24.752;2022-12-11T01:13:39;92.78;;;58.53;;
10947;SDS011;5526;42.070;24.752;2022-12-11T01:16:13;83.60;;;55.72;;
10947;SDS011;5526;42.070;24.752;2022-12-11T01:18:42;89.20;;;59.25;;
10947;SDS011;5526;42.070;24.752;2022-12-11T01:21:10;82.15;;;53.78;;
10947;SDS011;5526;42.070;24.752;2022-12-11T01:23:39;71.78;;;50.58;;
10947;SDS011;5526;42.070;24.752;2022-12-11T01:26:08;67.97;;;49.10;;
10947;SDS011;5526;42.070;24.752;2022-12-11T01:28:37;67.03;;;46.70;;
10947;SDS011;5526;42.070;24.752;2022-12-11T01:31:08;63.60;;;45.97;;
10947;SDS011;5526;42.070;24.752;2022-12-11T01:33:38;59.88;;;44.60;;
10947;SDS011;5526;42.070;24.752;2022-12-11T01:36:07;63.78;;;43.17;;
10947;SDS011;5526;42.070;24.752;2022-12-11T01:38:36;53.53;;;41.08;;
10947;SDS011;5526;42.070;24.752;2022-12-11T01:41:04;48.53;;;38.47;;
10947;SDS011;5526;42.070;24.752;2022-12-11T01:43:32;46.85;;;36.35;;
10947;SDS011;5526;42.070;24.752;2022-12-11T01:46:00;47.83;;;36.45;;
10947;SDS011;5526;42.070;24.752;2022-12-11T01:48:28;49.20;;;37.17;;
10947;SDS011;5526;42.070;24.752;2022-12-11T01:51:00;43.22;;;34.15;;
10947;SDS011;5526;42.070;24.752;2022-12-11T01:53:32;43.67;;;34.83;;
10947;SDS011;5526;42.070;24.752;2022-12-11T01:56:03;42.67;;;28.25;;
10947;SDS011;5526;42.070;24.752;2022-12-11T01:58:33;38.78;;;29.85;;
10947;SDS011;5526;42.070;24.752;2022-12-11T02:01:04;34.03;;;26.60;;
10947;SDS011;5526;42.070;24.752;2022-12-11T02:03:33;37.13;;;26.70;;
10947;SDS011;5526;42.070;24.752;2022-12-11T02:06:02;36.85;;;26.92;;
10947;SDS011;5526;42.070;24.752;2022-12-11T02:08:30;35.65;;;27.23;;
10947;SDS011;5526;42.070;24.752;2022-12-11T02:11:00;32.55;;;26.15;;
10947;SDS011;5526;42.070;24.752;2022-12-11T02:13:33;31.63;;;25.50;;
10947;SDS011;5526;42.070;24.752;2022-12-11T02:16:09;31.83;;;25.45;;
10947;SDS011;5526;42.070;24.752;2022-12-11T02:18:46;30.30;;;24.55;;
10947;SDS011;5526;42.070;24.752;2022-12-11T02:21:22;32.60;;;25.02;;
10947;SDS011;5526;42.070;24.752;2022-12-11T02:23:54;36.50;;;26.20;;
10947;SDS011;5526;42.070;24.752;2022-12-11T02:29:32;32.38;;;25.92;;
10947;SDS011;5526;42.070;24.752;2022-12-11T02:32:05;34.50;;;24.98;;
10947;SDS011;5526;42.070;24.752;2022-12-11T02:34:37;37.08;;;26.50;;
10947;SDS011;5526;42.070;24.752;2022-12-11T02:37:10;35.03;;;25.63;;
10947;SDS011;5526;42.070;24.752;2022-12-11T02:39:45;37.45;;;25.65;;
10947;SDS011;5526;42.070;24.752;2022-12-11T02:42:18;38.63;;;25.17;;
10947;SDS011;5526;42.070;24.752;2022-12-11T02:44:50;33.28;;;24.20;;
10947;SDS011;5526;42.070;24.752;2022-12-11T02:47:21;36.97;;;24.33;;
10947;SDS011;5526;42.070;24.752;2022-12-11T02:49:52;35.75;;;24.95;;
10947;SDS011;5526;42.070;24.752;2022-12-11T02:52:24;30.23;;;23.63;;
10947;SDS011;5526;42.070;24.752;2022-12-11T02:54:55;33.92;;;25.50;;
10947;SDS011;5526;42.070;24.752;2022-12-11T02:57:26;36.05;;;25.40;;
10947;SDS011;5526;42.070;24.752;2022-12-11T03:00:03;36.05;;;25.17;;
10947;SDS011;5526;42.070;24.752;2022-12-11T03:02:32;36.80;;;25.58;;
10947;SDS011;5526;42.070;24.752;2022-12-11T03:05:00;34.25;;;24.05;;
10947;SDS011;5526;42.070;24.752;2022-12-11T03:07:30;32.83;;;23.70;;
10947;SDS011;5526;42.070;24.752;2022-12-11T03:10:00;30.77;;;22.00;;
10947;SDS011;5526;42.070;24.752;2022-12-11T03:12:28;26.55;;;21.00;;
10947;SDS011;5526;42.070;24.752;2022-12-11T03:14:57;28.48;;;19.55;;
10947;SDS011;5526;42.070;24.752;2022-12-11T03:17:30;26.33;;;18.52;;
10947;SDS011;5526;42.070;24.752;2022-12-11T03:20:04;27.17;;;18.42;;
10947;SDS011;5526;42.070;24.752;2022-12-11T03:22:39;22.13;;;17.00;;
10947;SDS011;5526;42.070;24.752;2022-12-11T03:25:11;24.38;;;15.55;;
10947;SDS011;5526;42.070;24.752;2022-12-11T03:27:46;27.10;;;16.80;;
10947;SDS011;5526;42.070;24.752;2022-12-11T03:30:22;24.45;;;16.60;;
10947;SDS011;5526;42.070;24.752;2022-12-11T03:32:56;24.63;;;17.38;;
10947;SDS011;5526;42.070;24.752;2022-12-11T03:35:29;25.30;;;17.08;;
10947;SDS011;5526;42.070;24.752;2022-12-11T03:38:01;27.50;;;15.90;;
10947;SDS011;5526;42.070;24.752;2022-12-11T03:40:34;24.52;;;15.57;;
10947;SDS011;5526;42.070;24.752;2022-12-11T03:43:04;23.13;;;16.25;;
10947;SDS011;5526;42.070;24.752;2022-12-11T03:45:33;21.50;;;14.50;;
10947;SDS011;5526;42.070;24.752;2022-12-11T03:48:05;18.02;;;13.40;;
10947;SDS011;5526;42.070;24.752;2022-12-11T03:50:36;20.60;;;12.90;;
10947;SDS011;5526;42.070;24.752;2022-12-11T03:53:05;19.80;;;13.00;;
10947;SDS011;5526;42.070;24.752;2022-12-11T03:55:33;22.52;;;16.88;;
10947;SDS011;5526;42.070;24.752;2022-12-11T03:58:04;19.73;;;14.45;;
10947;SDS011;5526;42.070;24.752;2022-12-11T04:00:32;19.75;;;12.98;;
10947;SDS011;5526;42.070;24.752;2022-12-11T04:03:00;20.70;;;12.20;;
10947;SDS011;5526;42.070;24.752;2022-12-11T04:05:44;16.38;;;11.35;;
10947;SDS011;5526;42.070;24.752;2022-12-11T04:08:13;16.58;;;11.68;;
10947;SDS011;5526;42.070;24.752;2022-12-11T04:10:44;17.63;;;10.90;;
10947;SDS011;5526;42.070;24.752;2022-12-11T04:13:12;18.30;;;11.00;;
10947;SDS011;5526;42.070;24.752;2022-12-11T04:15:40;16.63;;;11.00;;
10947;SDS011;5526;42.070;24.752;2022-12-11T04:18:08;17.45;;;10.07;;
10947;SDS011;5526;42.070;24.752;2022-12-11T04:20:54;17.33;;;10.90;;
10947;SDS011;5526;42.070;24.752;2022-12-11T04:23:39;14.90;;;9.40;;
10947;SDS011;5526;42.070;24.752;2022-12-11T04:26:24;15.10;;;9.50;;
10947;SDS011;5526;42.070;24.752;2022-12-11T04:28:52;13.18;;;9.20;;
10947;SDS011;5526;42.070;24.752;2022-12-11T04:31:20;13.43;;;8.40;;
10947;SDS011;5526;42.070;24.752;2022-12-11T04:33:48;10.23;;;7.38;;
10947;SDS011;5526;42.070;24.752;2022-12-11T04:36:18;11.88;;;6.35;;
10947;SDS011;5526;42.070;24.752;2022-12-11T04:38:46;8.90;;;6.13;;
10947;SDS011;5526;42.070;24.752;2022-12-11T04:41:14;8.60;;;4.63;;
10947;SDS011;5526;42.070;24.752;2022-12-11T04:43:42;13.27;;;9.02;;
10947;SDS011;5526;42.070;24.752;2022-12-11T04:46:11;15.68;;;10.82;;
10947;SDS011;5526;42.070;24.752;2022-12-11T04:48:41;15.18;;;11.77;;
10947;SDS011;5526;42.070;24.752;2022-12-11T04:51:09;19.90;;;12.02;;
10947;SDS011;5526;42.070;24.752;2022-12-11T04:53:39;20.60;;;11.95;;
10947;SDS011;5526;42.070;24.752;2022-12-11T04:56:07;16.38;;;11.18;;
10947;SDS011;5526;42.070;24.752;2022-12-11T04:58:37;18.83;;;11.20;;
10947;SDS011;5526;42.070;24.752;2022-12-11T05:01:06;16.50;;;11.10;;
10947;SDS011;5526;42.070;24.752;2022-12-11T05:03:35;18.95;;;10.93;;
10947;SDS011;5526;42.070;24.752;2022-12-11T05:06:03;70.07;;;62.60;;
10947;SDS011;5526;42.070;24.752;2022-12-11T05:08:32;34.50;;;30.95;;
10947;SDS011;5526;42.070;24.752;2022-12-11T05:11:04;20.48;;;11.82;;
10947;SDS011;5526;42.070;24.752;2022-12-11T05:13:33;15.65;;;10.20;;
10947;SDS011;5526;42.070;24.752;2022-12-11T05:16:03;18.45;;;16.55;;
10947;SDS011;5526;42.070;24.752;2022-12-11T05:18:32;16.85;;;11.98;;
10947;SDS011;5526;42.070;24.752;2022-12-11T05:21:00;23.27;;;21.27;;
10947;SDS011;5526;42.070;24.752;2022-12-11T05:23:30;14.18;;;11.30;;
10947;SDS011;5526;42.070;24.752;2022-12-11T05:25:59;19.08;;;11.95;;
10947;SDS011;5526;42.070;24.752;2022-12-11T05:28:30;15.65;;;10.75;;
10947;SDS011;5526;42.070;24.752;2022-12-11T05:31:00;13.18;;;8.70;;
10947;SDS011;5526;42.070;24.752;2022-12-11T05:33:30;10.38;;;6.93;;
10947;SDS011;5526;42.070;24.752;2022-12-11T05:35:58;9.73;;;7.70;;
10947;SDS011;5526;42.070;24.752;2022-12-11T05:38:26;9.02;;;6.50;;
10947;SDS011;5526;42.070;24.752;2022-12-11T05:40:54;6.03;;;3.90;;
10947;SDS011;5526;42.070;24.752;2022-12-11T05:43:23;7.75;;;4.35;;
10947;SDS011;5526;42.070;24.752;2022-12-11T05:45:54;8.57;;;6.32;;
10947;SDS011;5526;42.070;24.752;2022-12-11T05:48:22;11.45;;;8.23;;
10947;SDS011;5526;42.070;24.752;2022-12-11T05:50:56;13.13;;;8.27;;
10947;SDS011;5526;42.070;24.752;2022-12-11T05:53:24;12.07;;;7.78;;
10947;SDS011;5526;42.070;24.752;2022-12-11T05:55:52;8.18;;;6.50;;
10947;SDS011;5526;42.070;24.752;2022-12-11T05:58:20;7.53;;;6.38;;
10947;SDS011;5526;42.070;24.752;2022-12-11T06:00:48;8.85;;;5.93;;
10947;SDS011;5526;42.070;24.752;2022-12-11T06:03:17;8.10;;;6.10;;
10947;SDS011;5526;42.070;24.752;2022-12-11T06:05:46;10.32;;;7.50;;
10947;SDS011;5526;42.070;24.752;2022-12-11T06:08:14;13.38;;;11.48;;
10947;SDS011;5526;42.070;24.752;2022-12-11T06:10:44;16.48;;;11.88;;
10947;SDS011;5526;42.070;24.752;2022-12-11T06:13:12;15.15;;;9.90;;
10947;SDS011;5526;42.070;24.752;2022-12-11T06:15:40;15.63;;;11.23;;
10947;SDS011;5526;42.070;24.752;2022-12-11T06:18:09;13.27;;;8.27;;
10947;SDS011;5526;42.070;24.752;2022-12-11T06:20:38;10.02;;;7.60;;
10947;SDS011;5526;42.070;24.752;2022-12-11T06:23:06;8.63;;;6.75;;
10947;SDS011;5526;42.070;24.752;2022-12-11T06:25:34;13.50;;;7.75;;
10947;SDS011;5526;42.070;24.752;2022-12-11T06:28:04;14.10;;;8.95;;
10947;SDS011;5526;42.070;24.752;2022-12-11T06:30:32;11.40;;;7.95;;
10947;SDS011;5526;42.070;24.752;2022-12-11T06:33:00;10.88;;;7.97;;
10947;SDS011;5526;42.070;24.752;2022-12-11T06:35:28;9.63;;;6.63;;
10947;SDS011;5526;42.070;24.752;2022-12-11T06:37:57;10.38;;;7.40;;
10947;SDS011;5526;42.070;24.752;2022-12-11T06:40:25;11.07;;;8.30;;
10947;SDS011;5526;42.070;24.752;2022-12-11T06:42:53;20.13;;;12.38;;
10947;SDS011;5526;42.070;24.752;2022-12-11T06:45:21;19.00;;;12.68;;
10947;SDS011;5526;42.070;24.752;2022-12-11T06:47:49;22.95;;;14.70;;
10947;SDS011;5526;42.070;24.752;2022-12-11T06:50:17;22.83;;;15.20;;
10947;SDS011;5526;42.070;24.752;2022-12-11T06:52:44;20.52;;;14.95;;
10947;SDS011;5526;42.070;24.752;2022-12-11T06:55:15;16.88;;;13.15;;
10947;SDS011;5526;42.070;24.752;2022-12-11T06:57:42;16.02;;;11.18;;
10947;SDS011;5526;42.070;24.752;2022-12-11T07:00:11;15.68;;;11.45;;
10947;SDS011;5526;42.070;24.752;2022-12-11T07:02:42;14.48;;;10.98;;
10947;SDS011;5526;42.070;24.752;2022-12-11T07:05:09;16.17;;;11.40;;
10947;SDS011;5526;42.070;24.752;2022-12-11T07:07:37;13.98;;;10.88;;
10947;SDS011;5526;42.070;24.752;2022-12-11T07:10:05;10.52;;;8.43;;
10947;SDS011;5526;42.070;24.752;2022-12-11T07:12:35;10.98;;;9.13;;
10947;SDS011;5526;42.070;24.752;2022-12-11T07:15:04;13.75;;;9.15;;
10947;SDS011;5526;42.070;24.752;2022-12-11T07:17:32;12.07;;;7.68;;
10947;SDS011;5526;42.070;24.752;2022-12-11T07:20:00;10.00;;;6.95;;
10947;SDS011;5526;42.070;24.752;2022-12-11T07:22:29;8.95;;;5.18;;
10947;SDS011;5526;42.070;24.752;2022-12-11T07:24:57;9.27;;;6.47;;
10947;SDS011;5526;42.070;24.752;2022-12-11T07:27:24;9.07;;;5.65;;
10947;SDS011;5526;42.070;24.752;2022-12-11T07:29:54;10.00;;;6.38;;
10947;SDS011;5526;42.070;24.752;2022-12-11T07:32:21;14.20;;;5.45;;
10947;SDS011;5526;42.070;24.752;2022-12-11T07:34:49;6.82;;;5.40;;
10947;SDS011;5526;42.070;24.752;2022-12-11T07:37:17;11.63;;;10.15;;
10947;SDS011;5526;42.070;24.752;2022-12-11T07:39:45;16.13;;;12.55;;
10947;SDS011;5526;42.070;24.752;2022-12-11T07:42:13;14.38;;;11.40;;
10947;SDS011;5526;42.070;24.752;2022-12-11T07:44:41;134.18;;;85.53;;
10947;SDS011;5526;42.070;24.752;2022-12-11T07:47:10;26.30;;;19.35;;
10947;SDS011;5526;42.070;24.752;2022-12-11T07:49:38;32.85;;;26.23;;
10947;SDS011;5526;42.070;24.752;2022-12-11T07:52:06;29.88;;;24.52;;
10947;SDS011;5526;42.070;24.752;2022-12-11T07:54:34;18.98;;;15.10;;
10947;SDS011;5526;42.070;24.752;2022-12-11T07:57:02;14.85;;;11.25;;
10947;SDS011;5526;42.070;24.752;2022-12-11T07:59:33;15.60;;;12.48;;
10947;SDS011;5526;42.070;24.752;2022-12-11T08:02:01;13.98;;;11.40;;
10947;SDS011;5526;42.070;24.752;2022-12-11T08:04:30;15.38;;;10.73;;
10947;SDS011;5526;42.070;24.752;2022-12-11T08:06:58;16.08;;;13.25;;
10947;SDS011;5526;42.070;24.752;2022-12-11T08:09:26;13.38;;;9.77;;
10947;SDS011;5526;42.070;24.752;2022-12-11T08:11:57;11.18;;;8.57;;
10947;SDS011;5526;42.070;24.752;2022-12-11T08:14:24;10.60;;;8.10;;
10947;SDS011;5526;42.070;24.752;2022-12-11T08:16:52;11.30;;;9.30;;
10947;SDS011;5526;42.070;24.752;2022-12-11T08:19:21;13.68;;;9.57;;
10947;SDS011;5526;42.070;24.752;2022-12-11T08:21:51;12.50;;;10.52;;
10947;SDS011;5526;42.070;24.752;2022-12-11T08:24:19;13.00;;;10.20;;
10947;SDS011;5526;42.070;24.752;2022-12-11T08:26:46;13.00;;;10.25;;
10947;SDS011;5526;42.070;24.752;2022-12-11T08:29:14;14.98;;;12.05;;
10947;SDS011;5526;42.070;24.752;2022-12-11T08:31:42;12.85;;;9.63;;
10947;SDS011;5526;42.070;24.752;2022-12-11T08:34:10;11.45;;;9.43;;
10947;SDS011;5526;42.070;24.752;2022-12-11T08:36:38;10.85;;;8.32;;
10947;SDS011;5526;42.070;24.752;2022-12-11T08:39:08;16.42;;;9.32;;
10947;SDS011;5526;42.070;24.752;2022-12-11T08:41:35;11.43;;;9.48;;
10947;SDS011;5526;42.070;24.752;2022-12-11T08:44:03;10.98;;;8.57;;
10947;SDS011;5526;42.070;24.752;2022-12-11T08:46:31;7.63;;;6.45;;
10947;SDS011;5526;42.070;24.752;2022-12-11T08:49:00;10.27;;;6.95;;
10947;SDS011;5526;42.070;24.752;2022-12-11T08:51:28;8.45;;;7.00;;
10947;SDS011;5526;42.070;24.752;2022-12-11T08:53:58;7.78;;;5.45;;
10947;SDS011;5526;42.070;24.752;2022-12-11T08:56:28;7.15;;;5.30;;
10947;SDS011;5526;42.070;24.752;2022-12-11T08:58:58;7.43;;;4.95;;
10947;SDS011;5526;42.070;24.752;2022-12-11T09:01:27;6.75;;;5.13;;
10947;SDS011;5526;42.070;24.752;2022-12-11T09:03:56;9.02;;;5.32;;
10947;SDS011;5526;42.070;24.752;2022-12-11T09:06:25;8.50;;;6.65;;
10947;SDS011;5526;42.070;24.752;2022-12-11T09:08:55;8.25;;;5.85;;
10947;SDS011;5526;42.070;24.752;2022-12-11T09:11:25;8.02;;;6.07;;
10947;SDS011;5526;42.070;24.752;2022-12-11T09:13:56;10.30;;;5.90;;
10947;SDS011;5526;42.070;24.752;2022-12-11T09:16:25;18.73;;;16.15;;
10947;SDS011;5526;42.070;24.752;2022-12-11T09:18:54;29.55;;;21.77;;
10947;SDS011;5526;42.070;24.752;2022-12-11T09:21:24;21.05;;;18.00;;
10947;SDS011;5526;42.070;24.752;2022-12-11T09:23:54;16.55;;;14.35;;
10947;SDS011;5526;42.070;24.752;2022-12-11T09:26:24;19.00;;;15.10;;
10947;SDS011;5526;42.070;24.752;2022-12-11T09:28:54;15.48;;;11.55;;
10947;SDS011;5526;42.070;24.752;2022-12-11T09:31:23;12.55;;;10.52;;
10947;SDS011;5526;42.070;24.752;2022-12-11T09:33:54;11.98;;;10.23;;
10947;SDS011;5526;42.070;24.752;2022-12-11T09:36:22;14.02;;;10.85;;
10947;SDS011;5526;42.070;24.752;2022-12-11T09:38:50;13.07;;;11.30;;
10947;SDS011;5526;42.070;24.752;2022-12-11T09:41:27;9.32;;;8.15;;
10947;SDS011;5526;42.070;24.752;2022-12-11T09:44:06;12.85;;;9.68;;
10947;SDS011;5526;42.070;24.752;2022-12-11T09:46:42;13.13;;;10.18;;
10947;SDS011;5526;42.070;24.752;2022-12-11T09:49:13;10.73;;;9.50;;
10947;SDS011;5526;42.070;24.752;2022-12-11T09:51:49;11.30;;;9.43;;
10947;SDS011;5526;42.070;24.752;2022-12-11T09:54:25;13.27;;;8.95;;
10947;SDS011;5526;42.070;24.752;2022-12-11T09:56:55;12.50;;;9.13;;
10947;SDS011;5526;42.070;24.752;2022-12-11T09:59:33;10.00;;;7.50;;
10947;SDS011;5526;42.070;24.752;2022-12-11T10:02:13;10.68;;;6.88;;
10947;SDS011;5526;42.070;24.752;2022-12-11T10:04:50;8.85;;;5.97;;
10947;SDS011;5526;42.070;24.752;2022-12-11T10:07:32;9.55;;;6.13;;
10947;SDS011;5526;42.070;24.752;2022-12-11T10:10:06;8.30;;;5.80;;
10947;SDS011;5526;42.070;24.752;2022-12-11T10:12:43;6.60;;;4.47;;
10947;SDS011;5526;42.070;24.752;2022-12-11T10:15:25;7.82;;;6.22;;
10947;SDS011;5526;42.070;24.752;2022-12-11T10:18:02;7.93;;;5.97;;
10947;SDS011;5526;42.070;24.752;2022-12-11T10:20:33;4.70;;;3.58;;
10947;SDS011;5526;42.070;24.752;2022-12-11T10:23:05;4.75;;;2.50;;
10947;SDS011;5526;42.070;24.752;2022-12-11T10:25:34;2.28;;;1.90;;
10947;SDS011;5526;42.070;24.752;2022-12-11T10:28:08;5.55;;;1.90;;
10947;SDS011;5526;42.070;24.752;2022-12-11T10:30:43;4.57;;;2.88;;
10947;SDS011;5526;42.070;24.752;2022-12-11T10:33:25;4.15;;;3.65;;
10947;SDS011;5526;42.070;24.752;2022-12-11T10:36:01;4.18;;;3.40;;
10947;SDS011;5526;42.070;24.752;2022-12-11T10:38:30;4.47;;;3.28;;
10947;SDS011;5526;42.070;24.752;2022-12-11T10:41:00;5.07;;;3.08;;
10947;SDS011;5526;42.070;24.752;2022-12-11T10:43:33;7.15;;;2.92;;
10947;SDS011;5526;42.070;24.752;2022-12-11T10:46:04;4.07;;;2.55;;
10947;SDS011;5526;42.070;24.752;2022-12-11T10:48:44;4.75;;;2.97;;
10947;SDS011;5526;42.070;24.752;2022-12-11T10:51:12;7.18;;;3.97;;
10947;SDS011;5526;42.070;24.752;2022-12-11T10:53:41;4.38;;;3.80;;
10947;SDS011;5526;42.070;24.752;2022-12-11T10:56:09;5.53;;;3.30;;
10947;SDS011;5526;42.070;24.752;2022-12-11T10:58:38;4.22;;;2.50;;
10947;SDS011;5526;42.070;24.752;2022-12-11T11:01:17;8.00;;;2.67;;
10947;SDS011;5526;42.070;24.752;2022-12-11T11:03:52;4.90;;;2.92;;
10947;SDS011;5526;42.070;24.752;2022-12-11T11:06:23;3.40;;;2.45;;
10947;SDS011;5526;42.070;24.752;2022-12-11T11:08:53;5.03;;;3.03;;
10947;SDS011;5526;42.070;24.752;2022-12-11T11:11:26;4.10;;;1.90;;
10947;SDS011;5526;42.070;24.752;2022-12-11T11:14:06;4.22;;;1.90;;
10947;SDS011;5526;42.070;24.752;2022-12-11T11:16:44;2.75;;;1.80;;
10947;SDS011;5526;42.070;24.752;2022-12-11T11:19:17;2.88;;;1.27;;
10947;SDS011;5526;42.070;24.752;2022-12-11T11:21:49;3.53;;;1.60;;
10947;SDS011;5526;42.070;24.752;2022-12-11T11:24:26;3.45;;;1.33;;
10947;SDS011;5526;42.070;24.752;2022-12-11T11:26:59;2.28;;;1.33;;
10947;SDS011;5526;42.070;24.752;2022-12-11T11:29:28;1.38;;;1.17;;
10947;SDS011;5526;42.070;24.752;2022-12-11T11:32:13;3.75;;;1.27;;
10947;SDS011;5526;42.070;24.752;2022-12-11T11:34:43;2.30;;;1.42;;
10947;SDS011;5526;42.070;24.752;2022-12-11T11:37:21;1.98;;;1.30;;
10947;SDS011;5526;42.070;24.752;2022-12-11T11:39:51;2.45;;;1.80;;
10947;SDS011;5526;42.070;24.752;2022-12-11T11:42:27;3.63;;;1.70;;
10947;SDS011;5526;42.070;24.752;2022-12-11T11:45:06;5.00;;;1.77;;
10947;SDS011;5526;42.070;24.752;2022-12-11T11:47:44;8.65;;;6.20;;
10947;SDS011;5526;42.070;24.752;2022-12-11T11:50:23;3.22;;;2.10;;
10947;SDS011;5526;42.070;24.752;2022-12-11T11:52:59;6.32;;;3.80;;
10947;SDS011;5526;42.070;24.752;2022-12-11T11:55:33;2.33;;;1.40;;
10947;SDS011;5526;42.070;24.752;2022-12-11T11:58:11;3.50;;;2.10;;
10947;SDS011;5526;42.070;24.752;2022-12-11T12:00:43;7.25;;;4.30;;
10947;SDS011;5526;42.070;24.752;2022-12-11T12:03:14;7.43;;;4.78;;
10947;SDS011;5526;42.070;24.752;2022-12-11T12:05:48;8.18;;;5.57;;
10947;SDS011;5526;42.070;24.752;2022-12-11T12:08:22;6.38;;;5.32;;
10947;SDS011;5526;42.070;24.752;2022-12-11T12:11:13;7.85;;;5.40;;
10947;SDS011;5526;42.070;24.752;2022-12-11T12:13:52;11.32;;;6.20;;
10947;SDS011;5526;42.070;24.752;2022-12-11T12:16:31;9.65;;;5.72;;
10947;SDS011;5526;42.070;24.752;2022-12-11T12:19:11;11.48;;;5.50;;
10947;SDS011;5526;42.070;24.752;2022-12-11T12:21:46;10.13;;;6.55;;
10947;SDS011;5526;42.070;24.752;2022-12-11T12:24:19;10.38;;;5.78;;
10947;SDS011;5526;42.070;24.752;2022-12-11T12:27:12;6.60;;;4.57;;
10947;SDS011;5526;42.070;24.752;2022-12-11T12:29:47;6.70;;;4.63;;
10947;SDS011;5526;42.070;24.752;2022-12-11T12:32:26;7.30;;;5.30;;
10947;SDS011;5526;42.070;24.752;2022-12-11T12:35:08;7.90;;;5.43;;
10947;SDS011;5526;42.070;24.752;2022-12-11T12:37:45;11.30;;;6.25;;
10947;SDS011;5526;42.070;24.752;2022-12-11T12:40:18;9.55;;;6.30;;
10947;SDS011;5526;42.070;24.752;2022-12-11T12:42:53;9.00;;;4.90;;
10947;SDS011;5526;42.070;24.752;2022-12-11T12:45:43;9.77;;;5.93;;
10947;SDS011;5526;42.070;24.752;2022-12-11T12:48:21;10.27;;;6.32;;
10947;SDS011;5526;42.070;24.752;2022-12-11T12:50:54;10.48;;;6.35;;
10947;SDS011;5526;42.070;24.752;2022-12-11T12:53:24;6.88;;;5.82;;
10947;SDS011;5526;42.070;24.752;2022-12-11T12:55:56;9.07;;;7.28;;
10947;SDS011;5526;42.070;24.752;2022-12-11T12:58:26;8.27;;;4.80;;
10947;SDS011;5526;42.070;24.752;2022-12-11T13:01:05;4.50;;;3.97;;
10947;SDS011;5526;42.070;24.752;2022-12-11T13:03:35;4.25;;;2.45;;
10947;SDS011;5526;42.070;24.752;2022-12-11T13:06:26;5.63;;;3.50;;
10947;SDS011;5526;42.070;24.752;2022-12-11T13:08:56;5.20;;;4.07;;
10947;SDS011;5526;42.070;24.752;2022-12-11T13:11:29;5.50;;;4.53;;
10947;SDS011;5526;42.070;24.752;2022-12-11T13:14:00;1.50;;;0.70;;
10947;SDS011;5526;42.070;24.752;2022-12-11T13:16:34;0.85;;;0.80;;
10947;SDS011;5526;42.070;24.752;2022-12-11T13:19:14;0.63;;;0.60;;
10947;SDS011;5526;42.070;24.752;2022-12-11T13:21:55;0.70;;;0.60;;
10947;SDS011;5526;42.070;24.752;2022-12-11T13:24:25;1.02;;;0.50;;
10947;SDS011;5526;42.070;24.752;2022-12-11T13:26:55;0.70;;;0.70;;
10947;SDS011;5526;42.070;24.752;2022-12-11T13:29:35;1.67;;;0.40;;
10947;SDS011;5526;42.070;24.752;2022-12-11T13:32:18;1.10;;;0.40;;
10947;SDS011;5526;42.070;24.752;2022-12-11T13:34:52;1.02;;;0.50;;
10947;SDS011;5526;42.070;24.752;2022-12-11T13:37:25;1.30;;;0.50;;
10947;SDS011;5526;42.070;24.752;2022-12-11T13:39:58;0.93;;;0.50;;
10947;SDS011;5526;42.070;24.752;2022-12-11T13:42:28;0.90;;;0.60;;
10947;SDS011;5526;42.070;24.752;2022-12-11T13:44:59;0.75;;;0.68;;
10947;SDS011;5526;42.070;24.752;2022-12-11T13:47:28;1.33;;;0.60;;
10947;SDS011;5526;42.070;24.752;2022-12-11T13:50:10;1.67;;;0.40;;
10947;SDS011;5526;42.070;24.752;2022-12-11T13:52:51;0.77;;;0.35;;
10947;SDS011;5526;42.070;24.752;2022-12-11T13:55:21;0.63;;;0.50;;
10947;SDS011;5526;42.070;24.752;2022-12-11T13:57:50;0.82;;;0.20;;
10947;SDS011;5526;42.070;24.752;2022-12-11T14:00:20;0.50;;;0.30;;
10947;SDS011;5526;42.070;24.752;2022-12-11T14:02:49;0.90;;;0.40;;
10947;SDS011;5526;42.070;24.752;2022-12-11T14:05:19;0.50;;;0.50;;
10947;SDS011;5526;42.070;24.752;2022-12-11T14:07:50;0.40;;;0.40;;
10947;SDS011;5526;42.070;24.752;2022-12-11T14:10:21;0.70;;;0.70;;
10947;SDS011;5526;42.070;24.752;2022-12-11T14:12:52;2.67;;;1.00;;
10947;SDS011;5526;42.070;24.752;2022-12-11T14:15:23;2.45;;;0.55;;
10947;SDS011;5526;42.070;24.752;2022-12-11T14:17:52;2.00;;;0.50;;
10947;SDS011;5526;42.070;24.752;2022-12-11T14:20:21;0.80;;;0.80;;
10947;SDS011;5526;42.070;24.752;2022-12-11T14:23:02;1.67;;;0.77;;
10947;SDS011;5526;42.070;24.752;2022-12-11T14:25:31;1.95;;;0.70;;
10947;SDS011;5526;42.070;24.752;2022-12-11T14:27:59;1.02;;;0.50;;
10947;SDS011;5526;42.070;24.752;2022-12-11T14:30:28;0.60;;;0.30;;
10947;SDS011;5526;42.070;24.752;2022-12-11T14:32:59;0.65;;;0.50;;
10947;SDS011;5526;42.070;24.752;2022-12-11T14:35:31;0.40;;;0.40;;
10947;SDS011;5526;42.070;24.752;2022-12-11T14:38:03;1.13;;;0.95;;
10947;SDS011;5526;42.070;24.752;2022-12-11T14:40:37;1.67;;;1.40;;
10947;SDS011;5526;42.070;24.752;2022-12-11T14:43:10;2.50;;;2.30;;
10947;SDS011;5526;42.070;24.752;2022-12-11T14:45:41;1.90;;;0.80;;
10947;SDS011;5526;42.070;24.752;2022-12-11T14:48:12;0.25;;;0.20;;
10947;SDS011;5526;42.070;24.752;2022-12-11T14:50:44;0.20;;;0.20;;
10947;SDS011;5526;42.070;24.752;2022-12-11T14:53:18;0.63;;;0.63;;
10947;SDS011;5526;42.070;24.752;2022-12-11T14:55:49;0.88;;;0.70;;
10947;SDS011;5526;42.070;24.752;2022-12-11T14:58:18;0.60;;;0.60;;
10947;SDS011;5526;42.070;24.752;2022-12-11T15:00:55;2.47;;;2.15;;